createdAt,value
2018-03-04T00:00:17.249Z,84.2
2018-03-04T00:01:18.932Z,84.1
2018-03-04T00:02:20.648Z,84.5
2018-03-04T00:03:22.370Z,84.2
2018-03-04T00:04:24.042Z,84.4
2018-03-04T00:05:25.788Z,84.8
2018-03-04T00:06:27.512Z,85.3
2018-03-04T00:07:29.150Z,85.9
2018-03-04T00:08:30.949Z,85.8
2018-03-04T00:09:32.574Z,85.8
2018-03-04T00:10:34.222Z,86.2
2018-03-04T00:11:35.918Z,85.9
2018-03-04T00:12:37.618Z,86.0
2018-03-04T00:13:39.347Z,86.0
2018-03-04T00:14:41.075Z,85.8
2018-03-04T00:15:42.704Z,86.1
2018-03-04T00:16:44.370Z,85.7
2018-03-04T00:17:46.074Z,86.3
2018-03-04T00:18:47.786Z,86.2
2018-03-04T00:19:49.441Z,86.0
2018-03-04T00:20:51.277Z,86.0
2018-03-04T00:21:52.964Z,86.1
2018-03-04T00:22:54.618Z,86.4
2018-03-04T00:23:56.395Z,85.8
2018-03-04T00:24:58.093Z,86.5
2018-03-04T00:25:59.770Z,86.6
2018-03-04T00:27:01.495Z,86.3
2018-03-04T00:28:03.200Z,86.4
2018-03-04T00:29:04.805Z,86.7
2018-03-04T00:30:06.508Z,86.9
2018-03-04T00:31:08.264Z,86.8
2018-03-04T00:32:09.909Z,86.8
2018-03-04T00:33:11.575Z,86.7
2018-03-04T00:34:13.297Z,86.8
2018-03-04T00:35:14.963Z,87.0
2018-03-04T00:36:16.678Z,87.0
2018-03-04T00:37:18.363Z,86.9
2018-03-04T00:38:20.063Z,86.9
2018-03-04T00:39:21.876Z,87.3
2018-03-04T00:40:23.543Z,87.8
2018-03-04T00:41:25.160Z,87.6
2018-03-04T00:42:26.858Z,87.4
2018-03-04T00:43:28.526Z,88.0
2018-03-04T00:44:30.216Z,87.6
2018-03-04T00:45:31.934Z,87.4
2018-03-04T00:46:33.681Z,87.8
2018-03-04T00:47:35.354Z,87.8
2018-03-04T00:48:37.139Z,87.8
2018-03-04T00:49:38.853Z,87.8
2018-03-04T00:50:40.557Z,87.6
2018-03-04T00:51:42.215Z,87.4
2018-03-04T00:52:43.942Z,87.5
2018-03-04T00:53:45.636Z,87.6
2018-03-04T00:54:47.303Z,87.6
2018-03-04T00:55:48.987Z,87.7
2018-03-04T00:56:50.698Z,87.2
2018-03-04T00:57:52.398Z,87.5
2018-03-04T00:58:54.045Z,87.4
2018-03-04T00:59:55.741Z,87.5
2018-03-04T01:00:57.470Z,87.6
2018-03-04T01:01:59.220Z,87.3
2018-03-04T01:03:00.910Z,87.1
2018-03-04T01:04:02.568Z,87.1
2018-03-04T01:05:04.224Z,87.0
2018-03-04T01:06:05.886Z,86.5
2018-03-04T01:07:07.603Z,86.6
2018-03-04T01:08:09.264Z,86.8
2018-03-04T01:09:10.925Z,86.6
2018-03-04T01:10:12.530Z,86.6
2018-03-04T01:11:14.110Z,86.7
2018-03-04T01:12:15.771Z,86.9
2018-03-04T01:13:17.432Z,86.9
2018-03-04T01:14:19.061Z,87.0
2018-03-04T01:15:20.778Z,86.3
2018-03-04T01:16:22.428Z,86.1
2018-03-04T01:17:24.113Z,86.5
2018-03-04T01:18:25.775Z,86.8
2018-03-04T01:19:27.467Z,86.8
2018-03-04T01:20:29.115Z,86.9
2018-03-04T01:21:30.757Z,86.2
2018-03-04T01:22:32.496Z,86.6
2018-03-04T01:23:34.221Z,86.4
2018-03-04T01:24:35.928Z,85.5
2018-03-04T01:25:37.641Z,85.4
2018-03-04T01:26:39.307Z,85.9
2018-03-04T01:27:41.037Z,85.9
2018-03-04T01:28:42.758Z,86.0
2018-03-04T01:29:44.495Z,86.0
2018-03-04T01:30:46.192Z,85.9
2018-03-04T01:31:47.842Z,85.7
2018-03-04T01:32:49.509Z,85.6
2018-03-04T01:33:51.276Z,86.0
2018-03-04T01:34:53.024Z,85.2
2018-03-04T01:35:54.703Z,85.3
2018-03-04T01:36:56.399Z,85.9
2018-03-04T01:37:58.093Z,86.2
2018-03-04T01:38:59.755Z,85.8
2018-03-04T01:40:01.449Z,85.9
2018-03-04T01:41:03.115Z,85.7
2018-03-04T01:42:04.755Z,85.8
2018-03-04T01:43:06.442Z,85.5
2018-03-04T01:44:08.148Z,85.8
2018-03-04T01:45:09.801Z,85.8
2018-03-04T01:46:11.525Z,85.7
2018-03-04T01:47:13.194Z,85.1
2018-03-04T01:48:14.887Z,85.6
2018-03-04T01:49:16.640Z,85.3
2018-03-04T01:50:18.324Z,85.1
2018-03-04T01:51:19.941Z,85.1
2018-03-04T01:52:21.737Z,85.2
2018-03-04T01:53:23.387Z,85.2
2018-03-04T01:54:25.058Z,85.0
2018-03-04T01:55:26.773Z,85.1
2018-03-04T01:56:28.464Z,86.0
2018-03-04T01:57:30.102Z,85.6
2018-03-04T01:58:31.821Z,85.9
2018-03-04T01:59:33.472Z,85.7
2018-03-04T02:00:35.130Z,86.0
2018-03-04T02:01:36.812Z,86.0
2018-03-04T02:02:38.499Z,85.3
2018-03-04T02:03:40.127Z,85.2
2018-03-04T02:04:41.940Z,86.0
2018-03-04T02:05:43.639Z,85.7
2018-03-04T02:06:45.259Z,85.9
2018-03-04T02:07:46.904Z,85.9
2018-03-04T02:08:48.596Z,86.1
2018-03-04T10:35:15.272Z,48.7
2018-03-04T10:36:16.663Z,48.7
2018-03-04T10:37:18.049Z,48.2
2018-03-04T10:38:19.448Z,48.0
2018-03-04T10:39:20.843Z,47.7
2018-03-04T10:40:22.230Z,47.3
2018-03-04T10:41:23.693Z,47.7
2018-03-04T10:42:25.307Z,47.6
2018-03-04T10:43:26.933Z,48.5
2018-03-04T10:44:28.517Z,48.8
2018-03-04T10:45:29.990Z,47.8
2018-03-04T10:46:31.486Z,47.0
2018-03-04T10:47:32.993Z,46.4
2018-03-04T10:48:34.508Z,45.6
2018-03-04T10:49:36.031Z,45.5
2018-03-04T10:50:37.515Z,45.8
2018-03-04T10:51:38.996Z,46.0
2018-03-04T10:52:40.458Z,45.8
2018-03-04T10:53:41.918Z,45.7
2018-03-04T10:54:43.405Z,45.0
2018-03-04T10:55:44.824Z,45.1
2018-03-04T10:56:46.241Z,44.4
2018-03-04T10:57:47.678Z,44.6
2018-03-04T10:58:49.195Z,43.8
2018-03-04T10:59:50.620Z,43.0
2018-03-04T11:00:52.275Z,43.7
2018-03-04T11:01:53.712Z,44.5
2018-03-04T11:02:55.228Z,46.0
2018-03-04T11:03:56.803Z,46.9
2018-03-04T11:04:58.252Z,47.0
2018-03-04T11:05:59.721Z,47.4
2018-03-04T11:07:01.155Z,47.9
2018-03-04T11:08:02.580Z,48.0
2018-03-04T11:09:04.006Z,49.0
2018-03-04T11:10:05.645Z,48.7
2018-03-04T11:11:07.108Z,49.2
2018-03-04T11:12:08.607Z,49.1
2018-03-04T11:13:10.086Z,49.2
2018-03-04T11:14:11.536Z,50.0
2018-03-04T11:15:13.011Z,50.4
2018-03-04T11:16:14.528Z,50.9
2018-03-04T11:17:16.035Z,50.7
2018-03-04T11:18:17.507Z,50.7
2018-03-04T11:19:18.926Z,50.6
2018-03-04T11:20:20.466Z,50.6
2018-03-04T11:21:21.938Z,50.9
2018-03-04T11:22:23.356Z,51.2
2018-03-04T11:23:24.888Z,50.9
2018-03-04T11:24:26.364Z,51.6
2018-03-04T11:25:27.827Z,52.0
2018-03-04T11:26:29.270Z,52.3
2018-03-04T11:27:30.787Z,52.3
2018-03-04T11:28:32.310Z,52.8
2018-03-04T11:29:33.715Z,52.8
2018-03-04T11:30:35.119Z,53.1
2018-03-04T11:31:36.619Z,54.0
2018-03-04T11:32:38.049Z,53.9
2018-03-04T11:33:39.618Z,54.3
2018-03-04T11:34:41.293Z,54.3
2018-03-04T11:35:42.832Z,54.8
2018-03-04T11:36:44.348Z,54.2
2018-03-04T11:37:46.026Z,55.1
2018-03-04T11:38:47.654Z,55.2
2018-03-04T11:39:49.320Z,54.9
2018-03-04T11:40:50.836Z,54.8
2018-03-04T11:41:52.652Z,54.1
2018-03-04T11:42:54.439Z,52.9
2018-03-04T11:43:56.180Z,51.4
2018-03-04T11:44:57.654Z,50.6
2018-03-04T11:45:59.100Z,50.2
2018-03-04T11:47:00.773Z,49.6
2018-03-04T11:48:02.390Z,49.2
2018-03-04T11:49:03.834Z,48.7
2018-03-04T11:50:05.329Z,47.8
2018-03-04T11:51:07.032Z,47.8
2018-03-04T11:52:08.756Z,46.1
2018-03-04T11:53:10.337Z,45.3
2018-03-04T11:54:12.017Z,44.8
2018-03-04T11:55:13.499Z,45.1
2018-03-04T11:56:15.263Z,44.5
2018-03-04T11:57:16.853Z,44.2
2018-03-04T11:58:18.517Z,43.8
2018-03-04T11:59:20.041Z,43.8
2018-03-04T12:00:21.616Z,43.3
2018-03-04T12:01:23.087Z,42.4
2018-03-04T12:02:24.940Z,41.6
2018-03-04T12:03:26.511Z,41.4
2018-03-04T12:04:28.148Z,41.6
2018-03-04T12:05:29.815Z,41.2
2018-03-04T12:06:31.250Z,40.7
2018-03-04T12:07:32.947Z,41.2
2018-03-04T12:08:34.441Z,40.4
2018-03-04T12:09:36.208Z,40.1
2018-03-04T12:10:37.800Z,39.6
2018-03-04T12:11:39.513Z,39.1
2018-03-04T12:12:41.116Z,39.2
2018-03-04T12:13:42.720Z,39.5
2018-03-04T12:14:44.311Z,39.4
2018-03-04T12:15:45.731Z,39.1
2018-03-04T12:16:47.171Z,39.0
2018-03-04T12:17:48.680Z,39.3
2018-03-04T12:18:50.272Z,39.9
2018-03-04T12:19:51.751Z,39.4
2018-03-04T12:20:53.220Z,39.4
2018-03-04T12:21:54.674Z,39.0
2018-03-04T12:22:56.111Z,39.2
2018-03-04T12:23:57.741Z,39.4
2018-03-04T12:24:59.263Z,39.4
2018-03-04T12:26:00.820Z,39.0
2018-03-04T12:27:02.372Z,39.2
2018-03-04T12:28:03.802Z,38.4
2018-03-04T12:29:05.548Z,37.6
2018-03-04T12:30:07.249Z,37.2
2018-03-04T12:31:08.815Z,37.5
2018-03-04T12:32:10.330Z,37.2
2018-03-04T12:33:12.040Z,36.7
2018-03-04T12:34:13.755Z,36.9
2018-03-04T12:35:15.326Z,37.3
2018-03-04T12:36:16.847Z,37.7
2018-03-04T12:37:18.438Z,36.5
2018-03-04T12:38:19.872Z,37.5
2018-03-04T12:39:21.454Z,36.3
2018-03-04T12:40:22.916Z,36.4
2018-03-04T12:41:24.458Z,36.3
2018-03-04T12:42:26.020Z,35.2
2018-03-04T12:43:27.531Z,34.8
2018-03-04T12:44:29.250Z,34.9
2018-03-04T12:45:30.747Z,34.8
2018-03-04T12:46:32.176Z,34.6
2018-03-04T12:47:33.641Z,34.8
2018-03-04T12:48:35.336Z,34.9
2018-03-04T12:49:36.990Z,35.5
2018-03-04T12:50:38.589Z,35.5
2018-03-04T12:51:40.013Z,35.8
2018-03-04T12:52:41.397Z,34.9
2018-03-04T12:53:42.816Z,35.2
2018-03-04T12:54:44.329Z,36.1
2018-03-04T12:55:45.737Z,36.4
2018-03-04T12:56:47.134Z,36.5
2018-03-04T12:57:48.614Z,37.3
2018-03-04T12:58:50.031Z,37.4
2018-03-04T12:59:52.003Z,37.6
2018-03-04T13:00:53.419Z,37.3
2018-03-04T13:01:55.246Z,37.2
2018-03-04T13:02:56.837Z,37.5
2018-03-04T13:03:58.499Z,37.3
2018-03-04T13:05:00.187Z,37.7
2018-03-04T13:06:01.587Z,37.7
2018-03-04T13:07:03.243Z,37.2
2018-03-04T13:08:04.924Z,37.9
2018-03-04T13:09:06.332Z,37.1
2018-03-04T13:10:07.969Z,36.0
2018-03-04T13:11:09.474Z,35.4
2018-03-04T13:12:10.938Z,35.4
2018-03-04T13:13:12.373Z,35.3
2018-03-04T13:14:13.879Z,35.2
2018-03-04T13:15:15.369Z,35.2
2018-03-04T13:16:16.805Z,35.1
2018-03-04T13:17:18.514Z,34.9
2018-03-04T13:18:20.237Z,34.8
2018-03-04T13:19:21.598Z,34.3
2018-03-04T13:20:23.272Z,34.1
2018-03-04T13:21:25.034Z,35.1
2018-03-04T13:22:26.636Z,35.0
2018-03-04T13:23:28.314Z,35.1
2018-03-04T13:24:30.082Z,35.1
2018-03-04T13:25:31.535Z,34.4
2018-03-04T13:26:32.958Z,34.9
2018-03-04T13:27:34.490Z,34.4
2018-03-04T13:28:36.107Z,34.1
2018-03-04T13:29:37.547Z,33.7
2018-03-04T13:30:39.283Z,33.9
2018-03-04T13:31:41.055Z,34.0
2018-03-04T13:32:42.532Z,34.1
2018-03-04T13:33:43.946Z,33.9
2018-03-04T13:34:45.418Z,33.5
2018-03-04T13:35:46.846Z,33.2
2018-03-04T13:36:48.449Z,33.3
2018-03-04T13:37:50.144Z,32.9
2018-03-04T13:38:51.919Z,32.9
2018-03-04T13:39:53.632Z,33.3
2018-03-04T13:40:55.423Z,32.7
2018-03-04T13:41:57.079Z,32.4
2018-03-04T13:42:58.516Z,33.0
2018-03-04T13:44:00.017Z,32.3
2018-03-04T13:45:01.613Z,32.4
2018-03-04T13:46:03.090Z,31.9
2018-03-04T13:47:04.807Z,31.6
2018-03-04T13:48:06.234Z,32.1
2018-03-04T13:49:07.802Z,31.9
2018-03-04T13:50:09.339Z,32.2
2018-03-04T13:51:10.836Z,32.3
2018-03-04T13:52:12.311Z,31.9
2018-03-04T13:53:13.847Z,32.0
2018-03-04T13:54:15.357Z,32.1
2018-03-04T13:55:16.888Z,32.1
2018-03-04T13:56:18.388Z,31.6
2018-03-04T13:57:19.952Z,32.0
2018-03-04T13:58:21.708Z,31.4
2018-03-04T13:59:23.190Z,32.6
2018-03-04T14:00:24.780Z,32.9
2018-03-04T14:01:26.298Z,32.2
2018-03-04T14:02:27.896Z,32.3
2018-03-04T14:03:29.448Z,31.9
2018-03-04T14:04:31.149Z,32.2
2018-03-04T14:05:32.762Z,32.5
2018-03-04T14:06:34.380Z,33.3
2018-03-04T14:07:36.086Z,33.8
2018-03-04T14:08:37.554Z,33.8
2018-03-04T14:09:39.062Z,34.1
2018-03-04T14:10:40.594Z,34.3
2018-03-04T14:11:42.071Z,34.1
2018-03-04T14:12:43.541Z,33.6
2018-03-04T14:13:45.261Z,33.8
2018-03-04T14:14:47.035Z,33.6
2018-03-04T14:15:48.537Z,33.1
2018-03-04T14:16:50.095Z,33.3
2018-03-04T14:17:51.779Z,33.0
2018-03-04T14:18:53.328Z,32.0
2018-03-04T14:19:54.713Z,31.8
2018-03-04T14:20:56.164Z,31.9
2018-03-04T14:21:57.608Z,31.7
2018-03-04T14:22:59.060Z,31.9
2018-03-04T14:24:00.485Z,31.8
2018-03-04T14:25:01.985Z,32.7
2018-03-04T14:26:03.430Z,33.3
2018-03-04T14:27:05.116Z,34.4
2018-03-04T14:28:06.849Z,34.6
2018-03-04T14:29:08.509Z,35.2
2018-03-04T14:30:09.984Z,35.8
2018-03-04T14:31:11.920Z,35.8
2018-03-04T14:32:13.654Z,36.1
2018-03-04T14:33:15.194Z,36.0
2018-03-04T14:34:16.978Z,36.7
2018-03-04T14:35:18.624Z,37.4
2018-03-04T14:36:20.257Z,37.1
2018-03-04T14:37:21.792Z,37.4
2018-03-04T14:38:23.307Z,38.6
2018-03-04T14:39:24.824Z,37.9
2018-03-04T14:40:26.574Z,38.3
2018-03-04T14:41:28.389Z,37.8
2018-03-04T14:42:29.894Z,37.9
2018-03-04T14:43:31.447Z,38.7
2018-03-04T14:44:33.207Z,39.1
2018-03-04T14:45:34.694Z,38.7
2018-03-04T14:46:36.243Z,39.2
2018-03-04T14:47:37.851Z,39.1
2018-03-04T14:48:39.382Z,39.8
2018-03-04T14:49:40.842Z,39.7
2018-03-04T14:50:42.465Z,40.3
2018-03-04T14:51:43.968Z,40.7
2018-03-04T14:52:45.489Z,40.8
2018-03-04T14:53:47.045Z,40.4
2018-03-04T14:54:48.511Z,40.7
2018-03-04T14:55:50.004Z,41.3
2018-03-04T14:56:51.453Z,41.3
2018-03-04T14:57:53.132Z,42.4
2018-03-04T14:58:54.827Z,43.0
2018-03-04T14:59:56.398Z,43.7
2018-03-04T15:00:57.936Z,44.0
2018-03-04T15:01:59.453Z,43.7
2018-03-04T15:03:00.892Z,44.9
2018-03-04T15:04:02.588Z,45.2
2018-03-04T15:05:04.194Z,45.7
2018-03-04T15:06:05.693Z,46.1
2018-03-04T15:07:07.255Z,46.1
2018-03-04T15:08:08.702Z,46.1
2018-03-04T15:09:10.178Z,46.3
2018-03-04T15:10:11.806Z,46.4
2018-03-04T15:11:13.230Z,46.8
2018-03-04T15:12:14.641Z,48.0
2018-03-04T15:13:16.101Z,48.0
2018-03-04T15:14:17.546Z,48.5
2018-03-04T15:15:18.987Z,48.4
2018-03-04T15:16:20.665Z,49.0
2018-03-04T15:17:22.181Z,49.8
2018-03-04T15:18:23.636Z,49.6
2018-03-04T15:19:25.139Z,50.1
2018-03-04T15:20:26.607Z,50.2
2018-03-04T15:21:28.110Z,49.8
2018-03-04T15:22:29.624Z,50.0
2018-03-04T15:23:31.107Z,50.0
2018-03-04T15:24:32.520Z,50.4
2018-03-04T15:25:33.986Z,50.6
2018-03-04T15:26:35.419Z,50.5
2018-03-04T15:27:36.887Z,50.6
2018-03-04T15:28:38.586Z,51.6
2018-03-04T15:29:40.118Z,51.6
2018-03-04T15:30:41.693Z,51.6
2018-03-04T15:31:43.171Z,52.3
2018-03-04T15:32:44.661Z,51.7
2018-03-04T15:33:46.218Z,51.8
2018-03-04T15:34:47.785Z,51.9
2018-03-04T15:35:49.596Z,52.4
2018-03-04T15:36:51.108Z,52.7
2018-03-04T15:37:52.642Z,53.3
2018-03-04T15:38:54.323Z,53.0
2018-03-04T15:39:55.977Z,53.5
2018-03-04T15:40:57.410Z,53.6
2018-03-04T15:41:58.923Z,53.5
2018-03-04T15:43:00.420Z,53.6
2018-03-04T15:44:02.008Z,53.8
2018-03-04T15:45:03.454Z,53.8
2018-03-04T15:46:04.889Z,54.8
2018-03-04T15:47:06.599Z,54.6
2018-03-04T15:48:08.045Z,55.2
2018-03-04T15:49:09.454Z,55.0
2018-03-04T15:50:11.121Z,54.8
2018-03-04T15:51:12.561Z,55.0
2018-03-04T15:52:13.977Z,55.1
2018-03-04T15:53:15.879Z,54.9
2018-03-04T15:54:17.332Z,55.1
2018-03-04T15:55:18.767Z,55.3
2018-03-04T15:56:20.469Z,54.9
2018-03-04T15:57:22.146Z,55.2
2018-03-04T15:58:23.894Z,55.8
2018-03-04T15:59:25.682Z,55.8
2018-03-04T16:00:27.174Z,55.8
2018-03-04T16:01:28.732Z,55.9
2018-03-04T16:02:30.183Z,55.7
2018-03-04T16:03:31.642Z,56.6
2018-03-04T16:04:33.182Z,57.4
2018-03-04T16:05:34.822Z,58.1
2018-03-04T16:06:36.538Z,57.8
2018-03-04T16:07:38.046Z,58.9
2018-03-04T16:08:39.498Z,58.6
2018-03-04T16:09:41.013Z,58.7
2018-03-04T16:10:42.516Z,59.2
2018-03-04T16:11:44.237Z,58.9
2018-03-04T16:12:46.030Z,58.9
2018-03-04T16:13:47.706Z,58.9
2018-03-04T16:14:49.187Z,58.7
2018-03-04T16:15:50.649Z,59.1
2018-03-04T16:16:52.369Z,59.3
2018-03-04T16:17:53.870Z,59.2
2018-03-04T16:18:55.347Z,59.3
2018-03-04T16:19:56.842Z,60.0
2018-03-04T16:20:58.255Z,60.5
2018-03-04T16:21:59.679Z,60.4
2018-03-04T16:23:01.157Z,60.6
2018-03-04T16:24:02.608Z,60.2
2018-03-04T16:25:04.060Z,61.0
2018-03-04T16:26:05.498Z,60.5
2018-03-04T16:27:07.088Z,60.8
2018-03-04T16:28:08.761Z,60.5
2018-03-04T16:29:10.489Z,60.9
2018-03-04T16:30:12.269Z,61.1
2018-03-04T16:31:13.768Z,61.6
2018-03-04T16:32:15.371Z,61.9
2018-03-04T16:33:16.804Z,62.4
2018-03-04T16:34:18.213Z,62.0
2018-03-04T16:35:19.648Z,62.8
2018-03-04T16:36:21.104Z,63.6
2018-03-04T16:37:22.820Z,63.6
2018-03-04T16:38:24.554Z,63.9
2018-03-04T16:39:26.061Z,63.9
2018-03-04T16:40:27.712Z,64.3
2018-03-04T16:41:29.178Z,64.6
2018-03-04T16:42:30.901Z,64.6
2018-03-04T16:43:32.496Z,64.4
2018-03-04T16:44:33.985Z,64.5
2018-03-04T16:45:35.435Z,64.7
2018-03-04T16:46:36.894Z,64.5
2018-03-04T16:47:38.438Z,64.4
2018-03-04T16:48:39.895Z,64.7
2018-03-04T16:49:41.551Z,64.9
2018-03-04T16:50:43.032Z,64.9
2018-03-04T16:51:44.522Z,65.4
2018-03-04T16:52:46.006Z,65.5
2018-03-04T16:53:47.471Z,65.3
2018-03-04T16:54:48.905Z,65.4
2018-03-04T16:55:50.445Z,65.9
2018-03-04T16:56:51.932Z,65.8
2018-03-04T16:57:53.560Z,65.6
2018-03-04T16:58:55.055Z,66.2
2018-03-04T16:59:56.465Z,66.3
2018-03-04T17:00:57.902Z,66.3
2018-03-04T17:01:59.440Z,66.6
2018-03-04T17:03:00.915Z,67.0
2018-03-04T17:04:02.462Z,67.6
2018-03-04T17:05:03.901Z,67.1
2018-03-04T17:06:05.630Z,67.6
2018-03-04T17:07:07.259Z,67.7
2018-03-04T17:08:08.724Z,68.2
2018-03-04T17:09:10.147Z,68.1
2018-03-04T17:10:11.676Z,68.1
2018-03-04T17:11:13.399Z,68.2
2018-03-04T17:12:14.816Z,68.5
2018-03-04T17:13:16.299Z,68.6
2018-03-04T17:14:17.724Z,68.3
2018-03-04T17:15:19.371Z,68.2
2018-03-04T17:16:20.772Z,68.7
2018-03-04T17:17:22.238Z,69.4
2018-03-04T17:18:23.703Z,69.2
2018-03-04T17:19:25.388Z,69.0
2018-03-04T17:20:26.862Z,68.7
2018-03-04T17:21:28.427Z,69.2
2018-03-04T17:22:30.101Z,69.6
2018-03-04T17:23:31.668Z,69.5
2018-03-04T17:24:33.081Z,69.5
2018-03-04T17:25:34.512Z,69.7
2018-03-04T17:26:36.225Z,69.3
2018-03-04T17:27:37.958Z,69.3
2018-03-04T17:28:39.742Z,69.2
2018-03-04T17:29:41.325Z,68.8
2018-03-04T17:30:42.777Z,68.7
2018-03-04T17:31:44.306Z,68.7
2018-03-04T17:32:45.761Z,69.6
2018-03-04T17:33:47.184Z,70.0
2018-03-04T17:34:48.794Z,69.9
2018-03-04T17:35:50.216Z,70.2
2018-03-04T17:36:51.687Z,69.9
2018-03-04T17:37:53.301Z,69.9
2018-03-04T17:38:54.745Z,69.8
2018-03-04T17:39:56.465Z,70.0
2018-03-04T17:40:58.161Z,70.1
2018-03-04T17:41:59.681Z,70.6
2018-03-04T17:43:01.220Z,70.7
2018-03-04T17:44:02.895Z,70.8
2018-03-04T17:45:04.381Z,71.0
2018-03-04T17:46:06.107Z,70.8
2018-03-04T17:47:07.887Z,71.0
2018-03-04T17:48:09.635Z,71.0
2018-03-04T17:49:11.364Z,71.7
2018-03-04T17:50:13.154Z,71.9
2018-03-04T17:51:14.834Z,72.1
2018-03-04T17:52:16.433Z,72.0
2018-03-04T17:53:18.017Z,72.5
2018-03-04T17:54:19.693Z,72.1
2018-03-04T17:55:21.516Z,72.2
2018-03-04T17:56:23.058Z,72.2
2018-03-04T17:57:24.830Z,73.1
2018-03-04T17:58:26.533Z,73.0
2018-03-04T17:59:28.236Z,72.9
2018-03-04T18:00:29.901Z,72.8
2018-03-04T18:01:31.672Z,73.0
2018-03-04T18:02:33.339Z,73.5
2018-03-04T18:03:35.037Z,73.3
2018-03-04T18:04:36.750Z,73.7
2018-03-04T18:05:38.450Z,73.4
2018-03-04T18:06:40.147Z,73.4
2018-03-04T18:07:41.828Z,73.7
2018-03-04T18:08:43.593Z,73.4
2018-03-04T18:09:45.110Z,74.4
2018-03-04T18:10:46.603Z,74.3
2018-03-04T18:11:48.037Z,74.1
2018-03-04T18:12:49.513Z,74.5
2018-03-04T18:13:51.304Z,74.6
2018-03-04T18:14:52.992Z,74.7
2018-03-04T18:15:54.749Z,74.6
2018-03-04T18:16:56.490Z,74.7
2018-03-04T18:17:58.189Z,74.6
2018-03-04T18:18:59.862Z,74.9
2018-03-04T18:20:01.608Z,74.6
2018-03-04T18:21:03.304Z,75.4
2018-03-04T18:22:04.968Z,75.0
2018-03-04T18:23:06.674Z,74.8
2018-03-04T18:24:08.437Z,75.2
2018-03-04T18:25:10.129Z,75.4
2018-03-04T18:26:11.871Z,75.3
2018-03-04T18:27:13.582Z,75.7
2018-03-04T18:28:15.313Z,75.5
2018-03-04T18:29:17.058Z,75.5
2018-03-04T18:30:19.784Z,75.3
2018-03-04T18:31:22.023Z,75.5
2018-03-04T18:32:24.530Z,76.1
2018-03-04T18:33:26.651Z,75.5
2018-03-04T18:34:29.025Z,75.7
2018-03-04T18:35:31.162Z,75.4
2018-03-04T18:36:33.597Z,75.3
2018-03-04T18:37:35.958Z,75.3
2018-03-04T18:38:38.613Z,75.8
2018-03-04T18:39:41.284Z,76.0
2018-03-04T18:40:43.876Z,76.1
2018-03-04T18:41:46.391Z,76.0
2018-03-04T18:42:48.655Z,75.7
2018-03-04T18:43:51.263Z,75.8
2018-03-04T18:44:53.628Z,76.0
2018-03-04T18:45:55.070Z,75.8
2018-03-04T18:46:56.517Z,75.9
2018-03-04T18:47:57.985Z,76.3
2018-03-04T18:48:59.511Z,75.9
2018-03-04T18:50:01.257Z,75.6
2018-03-04T18:51:02.977Z,75.7
2018-03-04T18:52:04.642Z,75.6
2018-03-04T18:53:06.142Z,76.0
2018-03-04T18:54:07.792Z,75.8
2018-03-04T18:55:09.485Z,75.9
2018-03-04T18:56:11.586Z,75.8
2018-03-04T18:57:13.277Z,76.1
2018-03-04T18:58:14.962Z,76.1
2018-03-04T18:59:16.665Z,75.5
2018-03-04T19:00:18.409Z,75.7
2018-03-04T19:01:20.142Z,75.7
2018-03-04T19:02:21.874Z,75.6
2018-03-04T19:03:23.597Z,75.5
2018-03-04T19:04:25.359Z,75.3
2018-03-04T19:05:26.831Z,75.5
2018-03-04T19:06:28.371Z,75.0
2018-03-04T19:07:30.017Z,74.9
2018-03-04T19:08:31.495Z,75.1
2018-03-04T19:09:32.947Z,74.8
2018-03-04T19:10:34.816Z,74.6
2018-03-04T19:11:36.558Z,74.8
2018-03-04T19:12:38.240Z,75.7
2018-03-04T19:13:39.927Z,75.6
2018-03-04T19:14:41.571Z,75.9
2018-03-04T19:15:43.072Z,76.3
2018-03-04T19:16:44.542Z,77.1
2018-03-04T19:17:46.195Z,77.1
2018-03-04T19:18:47.844Z,77.1
2018-03-04T19:19:49.289Z,77.2
2018-03-04T19:20:51.026Z,77.7
2018-03-04T19:21:52.756Z,77.7
2018-03-04T19:22:54.434Z,77.7
2018-03-04T19:23:56.186Z,77.8
2018-03-04T19:24:57.867Z,77.9
2018-03-04T19:25:59.551Z,78.0
2018-03-04T19:27:01.285Z,78.0
2018-03-04T19:28:03.043Z,78.2
2018-03-04T19:29:04.781Z,78.2
2018-03-04T19:30:06.426Z,77.9
2018-03-04T19:31:08.203Z,78.2
2018-03-04T19:32:09.860Z,77.9
2018-03-04T19:33:11.574Z,78.2
2018-03-04T19:34:13.287Z,78.2
2018-03-04T19:35:14.967Z,77.9
2018-03-04T19:36:16.732Z,77.4
2018-03-04T19:37:18.398Z,77.4
2018-03-04T19:38:20.070Z,77.6
2018-03-04T19:39:21.821Z,77.5
2018-03-04T19:40:23.604Z,77.1
2018-03-04T19:41:25.343Z,77.6
2018-03-04T19:42:27.063Z,77.5
2018-03-04T19:43:28.740Z,77.0
2018-03-04T19:44:30.442Z,77.3
2018-03-04T19:45:32.185Z,77.2
2018-03-04T19:46:33.886Z,77.2
2018-03-04T19:47:35.519Z,77.1
2018-03-04T19:48:37.235Z,77.2
2018-03-04T19:49:38.975Z,77.3
2018-03-04T19:50:40.588Z,77.7
2018-03-04T19:51:42.400Z,77.7
2018-03-04T19:52:44.054Z,78.4
2018-03-04T19:53:45.751Z,78.0
2018-03-04T19:54:47.536Z,78.7
2018-03-04T19:55:49.265Z,79.0
2018-03-04T19:56:51.664Z,79.2
2018-03-04T19:57:53.411Z,79.0
2018-03-04T19:58:55.193Z,78.2
2018-03-04T19:59:56.922Z,77.9
2018-03-04T20:00:58.686Z,78.3
2018-03-04T20:02:00.439Z,77.9
2018-03-04T20:03:02.183Z,78.1
2018-03-04T20:04:03.854Z,78.0
2018-03-04T20:05:05.505Z,78.1
2018-03-04T20:06:07.339Z,77.8
2018-03-04T20:07:09.052Z,77.3
2018-03-04T20:08:10.701Z,77.7
2018-03-04T20:09:12.408Z,78.0
2018-03-04T20:10:14.052Z,78.2
2018-03-04T20:11:15.716Z,78.0
2018-03-04T20:12:17.389Z,77.9
2018-03-04T20:13:18.853Z,77.9
2018-03-04T20:14:20.342Z,77.8
2018-03-04T20:15:22.078Z,77.7
2018-03-04T20:16:23.838Z,78.2
2018-03-04T20:17:25.542Z,78.0
2018-03-04T20:18:27.352Z,77.9
2018-03-04T20:19:29.100Z,78.2
2018-03-04T20:20:30.749Z,77.9
2018-03-04T20:21:32.519Z,78.2
2018-03-04T20:22:34.232Z,77.7
2018-03-04T20:23:35.952Z,78.2
2018-03-04T20:24:37.804Z,78.2
2018-03-04T20:25:39.418Z,78.3
2018-03-04T20:26:41.139Z,78.0
2018-03-04T20:27:42.909Z,78.1
2018-03-04T20:28:44.622Z,78.0
2018-03-04T20:29:46.392Z,78.1
2018-03-04T20:30:48.044Z,78.1
2018-03-04T20:31:49.745Z,78.0
2018-03-04T20:32:51.528Z,77.9
2018-03-04T20:33:53.211Z,78.2
2018-03-04T20:34:54.885Z,78.0
2018-03-04T20:35:56.570Z,77.5
2018-03-04T20:36:58.262Z,77.7
2018-03-04T20:38:00.060Z,77.8
2018-03-04T20:39:01.763Z,77.3
2018-03-04T20:40:03.504Z,77.4
2018-03-04T20:41:05.224Z,77.5
2018-03-04T20:42:06.733Z,78.0
2018-03-04T20:43:08.382Z,77.9
2018-03-04T20:44:10.066Z,77.8
2018-03-04T20:45:11.794Z,77.1
2018-03-04T20:46:13.533Z,77.1
2018-03-04T20:47:15.330Z,77.4
2018-03-04T20:48:17.092Z,77.1
2018-03-04T20:49:18.863Z,76.9
2018-03-04T20:50:20.324Z,76.7
2018-03-04T20:51:21.758Z,76.9
2018-03-04T20:52:23.205Z,76.4
2018-03-04T20:53:24.685Z,76.8
2018-03-04T20:54:26.134Z,76.1
2018-03-04T20:55:27.850Z,76.1
2018-03-04T20:56:29.589Z,75.7
2018-03-04T20:57:31.332Z,76.1
2018-03-04T20:58:33.099Z,75.8
2018-03-04T20:59:34.747Z,76.0
2018-03-04T21:00:36.415Z,75.7
2018-03-04T21:01:38.103Z,76.0
2018-03-04T21:02:39.819Z,75.7
2018-03-04T21:03:41.518Z,75.9
2018-03-04T21:04:43.174Z,75.9
2018-03-04T21:05:44.900Z,76.0
2018-03-04T21:06:46.573Z,75.6
2018-03-04T21:07:48.217Z,75.8
2018-03-04T21:08:49.881Z,75.7
2018-03-04T21:09:51.640Z,75.6
2018-03-04T21:10:53.450Z,75.8
2018-03-04T21:11:55.207Z,75.8
2018-03-04T21:12:56.983Z,76.1
2018-03-04T21:13:58.634Z,76.4
2018-03-04T21:15:00.379Z,76.5
2018-03-04T21:16:02.021Z,75.9
2018-03-04T21:17:03.681Z,75.9
2018-03-04T21:18:05.327Z,76.4
2018-03-04T21:19:07.078Z,76.0
2018-03-04T21:20:08.778Z,76.1
2018-03-04T21:21:10.212Z,76.4
2018-03-04T21:22:11.933Z,76.3
2018-03-04T21:23:13.378Z,75.8
2018-03-04T21:24:14.872Z,75.8
2018-03-04T21:25:16.510Z,76.3
2018-03-04T21:26:18.004Z,76.7
2018-03-04T21:27:19.469Z,76.5
2018-03-04T21:28:20.946Z,76.6
2018-03-04T21:29:22.786Z,76.8
2018-03-04T21:30:24.549Z,76.2
2018-03-04T21:31:26.192Z,76.3
2018-03-04T21:32:27.900Z,76.5
2018-03-04T21:33:29.396Z,76.0
2018-03-04T21:34:31.083Z,76.1
2018-03-04T21:35:32.795Z,76.8
2018-03-04T21:36:34.213Z,76.4
2018-03-04T21:37:35.643Z,76.3
2018-03-04T21:38:37.427Z,76.8
2018-03-04T21:39:39.187Z,76.3
2018-03-04T21:40:40.762Z,77.0
2018-03-04T21:41:42.563Z,76.2
2018-03-04T21:42:44.341Z,76.7
2018-03-04T21:43:45.955Z,76.3
2018-03-04T21:44:47.622Z,76.1
2018-03-04T21:45:49.264Z,76.3
2018-03-04T21:46:51.022Z,76.4
2018-03-04T21:47:52.738Z,76.1
2018-03-04T21:48:54.517Z,76.0
2018-03-04T21:49:56.186Z,75.5
2018-03-04T21:50:57.616Z,75.3
2018-03-04T21:51:59.168Z,75.3
2018-03-04T21:53:00.839Z,75.1
2018-03-04T21:54:02.512Z,74.8
2018-03-04T21:55:04.118Z,75.3
2018-03-04T21:56:05.730Z,74.4
2018-03-04T21:57:07.212Z,74.5
2018-03-04T21:58:08.857Z,74.6
2018-03-04T21:59:10.363Z,74.5
2018-03-04T22:00:12.094Z,74.5
2018-03-04T22:01:13.834Z,74.4
2018-03-04T22:02:15.545Z,74.7
2018-03-04T22:03:17.282Z,74.2
2018-03-04T22:04:18.717Z,74.0
2018-03-04T22:05:20.149Z,74.0